Time;durP1;ratioP1;P1;durP2;ratioP2;P2;SDS_P1;SDS_P2;PMS_P1;PMS_P2;Temp;Humidity;BMP_temperature;BMP_pressure;BME280_temperature;BME280_humidity;BME280_pressure;Samples;Min_cycle;Max_cycle;Signal;HPM_P1;HPM_P2
2021/01/26 00:00:29;;;;;;;13.18;3.92;;;;;;;27.63;26.84;96244.63;4977471;28;20050;-40
2021/01/26 00:02:54;;;;;;;7.78;3.53;;;;;;;27.63;26.66;96241.13;4987371;28;20041;-40
2021/01/26 00:05:20;;;;;;;8.10;3.63;;;;;;;27.62;26.63;96237.63;4984188;28;20182;-36
2021/01/26 00:07:45;;;;;;;8.55;3.88;;;;;;;27.61;26.69;96241.22;4981757;28;20132;-39
2021/01/26 00:10:11;;;;;;;7.30;3.63;;;;;;;27.60;26.77;96239.53;4967833;28;20035;-37
2021/01/26 00:12:37;;;;;;;7.95;3.67;;;;;;;27.60;26.65;96242.16;4986006;28;20054;-41
2021/01/26 00:15:03;;;;;;;7.93;3.80;;;;;;;27.59;26.83;96240.47;4979451;28;20029;-37
2021/01/26 00:17:29;;;;;;;10.80;3.42;;;;;;;27.59;26.70;96248.38;4981681;28;20099;-35
2021/01/26 00:19:54;;;;;;;8.18;3.33;;;;;;;27.58;26.77;96243.22;4982411;28;20031;-40
2021/01/26 00:22:20;;;;;;;10.05;3.63;;;;;;;27.57;26.85;96242.34;4986133;28;20081;-41
2021/01/26 00:24:46;;;;;;;9.13;3.47;;;;;;;27.55;26.98;96241.63;4988022;28;20042;-40
2021/01/26 00:27:11;;;;;;;7.60;3.25;;;;;;;27.56;26.72;96247.72;4978017;28;20038;-40
2021/01/26 00:29:36;;;;;;;7.57;3.33;;;;;;;27.56;26.81;96252.97;4987308;28;20675;-38
2021/01/26 00:32:03;;;;;;;6.65;3.50;;;;;;;27.54;26.82;96247.84;4984834;28;20051;-36
2021/01/26 00:34:28;;;;;;;7.85;3.40;;;;;;;27.54;26.61;96247.84;4974108;28;20042;-38
2021/01/26 00:36:54;;;;;;;5.22;2.85;;;;;;;27.54;26.69;96250.50;4997469;28;20037;-39
2021/01/26 00:39:20;;;;;;;7.20;3.17;;;;;;;27.52;26.63;96249.72;4985227;28;20057;-40
2021/01/26 00:41:45;;;;;;;7.38;3.20;;;;;;;27.53;26.70;96254.03;4979934;28;20405;-38
2021/01/26 00:44:11;;;;;;;6.32;3.10;;;;;;;27.52;26.65;96247.09;4991177;28;20050;-35
2021/01/26 00:46:36;;;;;;;5.78;3.20;;;;;;;27.51;26.75;96261.22;4985980;28;20038;-36
2021/01/26 00:49:02;;;;;;;8.20;3.05;;;;;;;27.49;26.71;96258.69;4986451;28;20038;-43
2021/01/26 00:51:28;;;;;;;6.55;2.97;;;;;;;27.48;26.85;96250.88;4988378;28;20072;-39
2021/01/26 00:53:54;;;;;;;7.70;3.38;;;;;;;27.48;26.68;96256.16;4981582;28;20627;-36
2021/01/26 00:56:20;;;;;;;6.78;3.17;;;;;;;27.48;26.79;96261.41;4982743;28;20042;-43
2021/01/26 00:58:46;;;;;;;5.93;2.97;;;;;;;27.46;26.87;96264.16;4988574;28;20041;-37
2021/01/26 01:01:11;;;;;;;6.50;2.75;;;;;;;27.45;26.74;96267.72;4993957;28;20053;-37
2021/01/26 01:03:37;;;;;;;6.53;3.00;;;;;;;27.45;26.73;96267.72;4978259;28;20041;-37
2021/01/26 01:06:02;;;;;;;4.55;2.60;;;;;;;27.45;26.85;96277.41;4973720;28;20038;-38
2021/01/26 01:08:28;;;;;;;6.05;2.67;;;;;;;27.44;26.71;96275.72;4987124;28;20514;-39
2021/01/26 01:10:54;;;;;;;5.85;2.78;;;;;;;27.43;26.70;96281.94;4991791;28;20059;-40
2021/01/26 01:13:20;;;;;;;4.30;2.38;;;;;;;27.42;26.73;96282.91;4987148;28;20050;-37
2021/01/26 01:15:46;;;;;;;5.13;2.47;;;;;;;27.42;26.69;96288.16;4972751;28;20042;-40
2021/01/26 01:18:12;;;;;;;4.72;2.42;;;;;;;27.41;26.80;96286.47;4981213;28;20577;-37
2021/01/26 01:20:38;;;;;;;6.90;2.85;;;;;;;27.39;26.91;96295.28;4981129;28;20563;-39
2021/01/26 01:23:04;;;;;;;5.63;2.65;;;;;;;27.39;26.84;96295.28;4987699;28;20054;-38
2021/01/26 01:25:29;;;;;;;4.28;2.40;;;;;;;27.38;26.87;96304.16;4979529;28;20117;-37
2021/01/26 01:27:55;;;;;;;5.40;2.35;;;;;;;27.38;26.74;96304.16;4986960;28;20050;-39
2021/01/26 01:30:27;;;;;;;4.60;2.60;;;;;;;27.37;26.88;96313.00;4984164;28;20123;-35
2021/01/26 01:32:52;;;;;;;4.97;2.67;;;;;;;27.38;26.69;96319.06;4990089;28;20676;-37
2021/01/26 01:35:18;;;;;;;4.78;2.25;;;;;;;27.36;26.71;96316.56;4986527;28;20050;-39
2021/01/26 01:37:43;;;;;;;4.13;2.45;;;;;;;27.37;26.81;96322.66;4977923;28;20131;-38
2021/01/26 01:40:12;;;;;;;5.93;2.35;;;;;;;27.37;26.77;96331.41;4982716;28;20041;-37
2021/01/26 01:42:37;;;;;;;5.05;2.40;;;;;;;27.36;26.76;96337.63;4978974;28;20053;-35
2021/01/26 01:45:05;;;;;;;4.57;2.28;;;;;;;27.36;26.60;96337.63;4993591;28;20058;-39
2021/01/26 01:47:35;;;;;;;4.05;2.22;;;;;;;27.36;26.57;96337.63;4984264;28;20155;-37
2021/01/26 01:50:01;;;;;;;3.03;2.03;;;;;;;27.36;26.61;96342.03;4980355;28;20073;-39
2021/01/26 01:52:32;;;;;;;4.30;2.30;;;;;;;27.35;26.71;96340.34;4993878;28;20050;-38
2021/01/26 01:55:03;;;;;;;4.03;2.27;;;;;;;27.32;26.75;96346.66;4999148;28;20073;-37
2021/01/26 01:57:34;;;;;;;7.65;2.15;;;;;;;27.30;26.71;96339.81;4967186;28;20590;-34
2021/01/26 02:00:10;;;;;;;8.73;2.70;;;;;;;27.33;26.56;96358.88;4984304;28;20111;-38
2021/01/26 02:02:38;;;;;;;12.95;2.20;;;;;;;27.32;26.61;96354.56;4983682;28;20073;-37
2021/01/26 02:05:03;;;;;;;3.58;2.22;;;;;;;27.32;26.80;96354.56;4978423;28;20042;-40
2021/01/26 02:07:29;;;;;;;3.92;1.90;;;;;;;27.31;26.69;96355.47;4980043;28;20074;-38
2021/01/26 02:09:55;;;;;;;3.05;2.00;;;;;;;27.31;26.71;96358.09;4991037;28;20050;-38
2021/01/26 02:12:20;;;;;;;5.80;1.92;;;;;;;27.31;26.60;96360.75;4984457;28;20042;-35
2021/01/26 02:14:53;;;;;;;4.63;1.70;;;;;;;27.30;26.61;96364.31;4984463;28;20041;-35
2021/01/26 02:17:48;;;;;;;3.03;2.10;;;;;;;27.29;26.81;96367.91;4968788;28;20053;-36
2021/01/26 02:20:38;;;;;;;3.30;1.90;;;;;;;27.28;26.74;96366.22;5002084;28;20052;-41
2021/01/26 02:23:25;;;;;;;2.67;1.70;;;;;;;27.27;26.70;96367.19;4980545;28;20049;-40
2021/01/26 02:26:12;;;;;;;2.83;1.77;;;;;;;27.25;26.76;96363.78;4986093;28;20037;-37
2021/01/26 02:28:57;;;;;;;3.17;1.58;;;;;;;27.27;26.82;96369.81;4974198;28;20449;-40
2021/01/26 02:31:44;;;;;;;7.57;2.08;;;;;;;27.26;26.83;96360.22;4993483;28;20038;-39
2021/01/26 02:34:37;;;;;;;4.07;2.10;;;;;;;27.24;26.65;96368.19;4977553;28;20070;-40
2021/01/26 02:37:08;;;;;;;2.90;1.77;;;;;;;27.26;26.72;96373.34;4993661;28;20058;-37
2021/01/26 02:39:49;;;;;;;6.82;1.77;;;;;;;27.24;26.58;96367.38;4976749;28;20031;-38
2021/01/26 02:43:03;;;;;;;4.00;1.83;;;;;;;27.25;26.74;96372.53;4988198;28;20069;-38
2021/01/26 02:45:37;;;;;;;2.78;1.70;;;;;;;27.24;26.74;96365.56;4974575;28;20037;-40
2021/01/26 02:48:21;;;;;;;2.58;1.67;;;;;;;27.24;26.75;96375.25;5021091;28;20613;-39
2021/01/26 02:51:07;;;;;;;4.38;2.05;;;;;;;27.22;26.73;96375.34;4991740;28;20711;-42
2021/01/26 02:53:37;;;;;;;5.43;2.05;;;;;;;27.22;26.71;96374.50;5006789;28;20514;-37
2021/01/26 02:56:21;;;;;;;3.28;1.90;;;;;;;27.21;26.77;96375.47;4994074;28;20038;-39
2021/01/26 02:58:51;;;;;;;3.97;1.58;;;;;;;27.20;26.77;96373.78;4983379;28;20038;-38
2021/01/26 03:01:17;;;;;;;2.30;1.40;;;;;;;27.22;26.78;96390.28;4967324;28;20047;-36
2021/01/26 03:03:53;;;;;;;4.47;1.80;;;;;;;27.21;26.66;96386.84;4990964;28;20076;-35
2021/01/26 03:06:22;;;;;;;3.50;1.83;;;;;;;27.21;26.65;96391.25;4994954;28;20050;-39
2021/01/26 03:08:56;;;;;;;2.38;1.60;;;;;;;27.20;26.87;96397.44;4986010;28;20034;-37
2021/01/26 03:11:33;;;;;;;2.45;1.70;;;;;;;27.19;26.64;96403.66;4984201;28;20680;-37
2021/01/26 03:14:05;;;;;;;2.42;1.52;;;;;;;27.20;26.73;96394.81;4995187;28;20042;-36
2021/01/26 03:16:32;;;;;;;3.42;1.85;;;;;;;27.19;26.58;96398.41;4970574;28;20463;-37
2021/01/26 03:19:09;;;;;;;2.67;1.80;;;;;;;27.19;26.68;96393.13;5004586;28;20037;-38
2021/01/26 03:21:36;;;;;;;2.88;1.70;;;;;;;27.19;26.65;96393.13;4992020;28;20030;-39
2021/01/26 03:24:04;;;;;;;3.28;1.98;;;;;;;27.19;26.68;96398.41;4963506;28;20100;-40
2021/01/26 03:26:30;;;;;;;2.97;1.73;;;;;;;27.18;26.67;96396.69;4996875;28;20038;-39
2021/01/26 03:28:56;;;;;;;3.30;2.03;;;;;;;27.18;26.57;96392.28;4984122;28;20600;-40
2021/01/26 03:31:42;;;;;;;3.28;1.90;;;;;;;27.17;26.79;96382.72;4961447;28;20041;-38
2021/01/26 03:34:08;;;;;;;2.47;1.65;;;;;;;27.17;26.75;96390.59;4967036;28;20057;-38
2021/01/26 03:36:34;;;;;;;2.65;1.85;;;;;;;27.16;26.72;96388.94;4986804;28;20046;-37
2021/01/26 03:39:00;;;;;;;1.75;1.45;;;;;;;27.15;26.79;96381.13;4988236;28;20033;-36
2021/01/26 03:41:26;;;;;;;3.08;1.63;;;;;;;27.16;26.73;96377.53;4983866;28;20089;-40
2021/01/26 03:43:52;;;;;;;2.28;1.60;;;;;;;27.17;26.68;96377.44;4997445;28;20052;-38
2021/01/26 03:46:35;;;;;;;2.88;1.70;;;;;;;27.16;26.72;96377.53;4987186;28;20424;-41
2021/01/26 03:49:23;;;;;;;3.35;1.80;;;;;;;27.17;26.80;96384.50;4987737;28;20027;-34
2021/01/26 03:52:10;;;;;;;2.85;1.77;;;;;;;27.15;26.63;96387.22;4995489;28;20030;-35
2021/01/26 03:54:38;;;;;;;2.25;1.50;;;;;;;27.16;26.69;96385.44;4991015;28;20030;-37
2021/01/26 03:57:06;;;;;;;2.33;1.85;;;;;;;27.15;26.52;96395.09;4964487;28;20074;-39
2021/01/26 03:59:33;;;;;;;2.88;1.65;;;;;;;27.15;26.77;96392.47;4978875;28;20129;-39
2021/01/26 04:02:17;;;;;;;2.13;1.50;;;;;;;27.16;26.68;96388.94;4977276;28;20054;-39
2021/01/26 04:05:14;;;;;;;2.20;1.33;;;;;;;27.16;26.66;96390.69;4961726;28;20133;-39
2021/01/26 04:07:42;;;;;;;3.30;1.60;;;;;;;27.15;26.74;96386.38;4977453;28;20163;-37
2021/01/26 04:10:20;;;;;;;2.90;1.60;;;;;;;27.14;26.64;96388.16;4979875;28;20045;-39
2021/01/26 04:12:45;;;;;;;2.03;1.50;;;;;;;27.13;26.62;96389.97;4980386;28;20554;-37
2021/01/26 04:15:13;;;;;;;2.08;1.60;;;;;;;27.15;26.49;96396.91;4977943;28;20053;-37
2021/01/26 04:17:40;;;;;;;2.10;1.33;;;;;;;27.13;26.49;96395.22;4978758;28;22011;-36
2021/01/26 04:20:07;;;;;;;1.60;1.30;;;;;;;27.13;26.91;96394.38;4983056;28;20104;-40
2021/01/26 04:22:32;;;;;;;2.28;1.50;;;;;;;27.11;26.50;96391.84;4978386;28;20161;-40
2021/01/26 04:24:58;;;;;;;2.08;1.52;;;;;;;27.11;26.64;96407.63;4982453;28;20512;-40
2021/01/26 04:27:24;;;;;;;2.25;1.50;;;;;;;27.11;26.62;96410.25;4986749;28;20057;-39
2021/01/26 04:29:50;;;;;;;1.73;1.40;;;;;;;27.09;26.68;96406.88;4983054;28;20051;-40
2021/01/26 04:32:16;;;;;;;2.63;1.50;;;;;;;27.09;26.83;96404.25;4975304;28;20039;-38
2021/01/26 04:34:42;;;;;;;2.80;1.60;;;;;;;27.10;26.70;96413.84;4982895;28;20046;-36
2021/01/26 04:37:08;;;;;;;3.15;1.65;;;;;;;27.10;26.50;96405.94;4984581;28;20042;-37
2021/01/26 04:39:33;;;;;;;1.60;1.40;;;;;;;27.10;26.64;96410.34;4976072;28;20096;-41
2021/01/26 04:42:00;;;;;;;2.38;1.48;;;;;;;27.08;26.62;96410.44;4980010;28;20050;-39
2021/01/26 04:44:50;;;;;;;2.20;1.30;;;;;;;27.09;26.79;96406.88;4978871;28;20105;-37
2021/01/26 04:47:20;;;;;;;1.90;1.17;;;;;;;27.08;26.67;96396.47;4987106;28;20046;-35
2021/01/26 04:50:01;;;;;;;2.10;1.45;;;;;;;27.07;26.65;96379.84;4972942;28;20034;-38
2021/01/26 04:52:39;;;;;;;2.38;1.33;;;;;;;27.07;26.67;96385.09;4988404;28;20121;-42
2021/01/26 04:55:11;;;;;;;1.70;1.20;;;;;;;27.02;26.67;96381.91;4983183;28;20037;-37
2021/01/26 04:57:48;;;;;;;1.60;1.30;;;;;;;27.05;26.78;96394.88;4971141;28;20026;-39
2021/01/26 05:00:14;;;;;;;1.50;1.23;;;;;;;27.05;26.68;96402.78;4990988;28;20035;-37
2021/01/26 05:02:54;;;;;;;2.95;1.45;;;;;;;27.05;26.77;96400.13;4979848;28;20088;-34
2021/01/26 05:05:20;;;;;;;1.70;1.20;;;;;;;27.06;26.63;96409.72;4981982;28;20127;-38
2021/01/26 05:07:54;;;;;;;1.73;1.55;;;;;;;27.05;26.72;96402.78;4991136;28;20125;-37
2021/01/26 05:10:36;;;;;;;1.50;1.10;;;;;;;27.05;26.67;96404.53;4974307;28;20873;-39
2021/01/26 05:13:05;;;;;;;1.95;1.02;;;;;;;27.05;26.71;96402.78;4987051;28;20043;-39
2021/01/26 05:15:33;;;;;;;1.83;1.35;;;;;;;27.04;26.50;96401.06;4972193;28;20117;-40
2021/01/26 05:18:05;;;;;;;1.20;1.10;;;;;;;27.05;26.62;96405.41;4970567;28;20044;-40
2021/01/26 05:20:40;;;;;;;1.17;1.02;;;;;;;27.05;26.45;96407.19;4985040;28;20030;-39
2021/01/26 05:23:18;;;;;;;1.42;1.17;;;;;;;27.06;26.64;96417.59;4980703;28;20053;-39
2021/01/26 05:25:43;;;;;;;1.27;1.08;;;;;;;27.06;26.55;96430.75;4993784;28;20117;-40
2021/01/26 05:28:08;;;;;;;1.27;0.98;;;;;;;27.06;26.59;96430.75;4983640;28;20086;-35
2021/01/26 05:30:37;;;;;;;2.38;1.13;;;;;;;27.05;26.56;96426.44;4991630;28;20057;-37
2021/01/26 05:33:12;;;;;;;1.77;1.20;;;;;;;27.07;26.77;96427.16;4998736;28;20034;-40
2021/01/26 05:35:39;;;;;;;1.40;1.13;;;;;;;27.07;26.67;96432.44;4981179;28;20073;-37
2021/01/26 05:38:05;;;;;;;1.45;1.05;;;;;;;27.08;26.74;96430.66;4971447;28;20041;-36
2021/01/26 05:40:33;;;;;;;1.20;1.05;;;;;;;27.07;26.64;96432.44;4988867;28;20052;-37
2021/01/26 05:42:59;;;;;;;1.50;1.02;;;;;;;27.07;26.56;96437.69;4979151;28;20050;-39
2021/01/26 05:45:36;;;;;;;2.00;1.15;;;;;;;27.06;26.51;96441.28;4973678;28;20133;-39
2021/01/26 05:48:09;;;;;;;1.55;1.23;;;;;;;27.05;26.51;96444.84;4986239;28;20046;-40
2021/01/26 05:50:35;;;;;;;2.05;1.20;;;;;;;27.06;26.62;96436.00;4975092;28;20113;-35
2021/01/26 05:53:04;;;;;;;1.45;0.98;;;;;;;27.06;26.54;96438.63;4995348;28;20053;-36
2021/01/26 05:55:30;;;;;;;1.02;0.88;;;;;;;27.05;26.58;96438.72;4993023;28;20030;-37
2021/01/26 05:57:57;;;;;;;1.52;1.10;;;;;;;27.05;26.63;96450.09;4976368;28;20039;-41
2021/01/26 06:00:25;;;;;;;2.80;1.15;;;;;;;27.05;26.57;96444.84;4979979;28;20027;-37
2021/01/26 06:03:12;;;;;;;1.73;1.17;;;;;;;27.07;26.59;96453.47;4980216;28;20076;-40
2021/01/26 06:05:39;;;;;;;1.38;0.95;;;;;;;27.06;26.63;96457.06;4978960;28;20049;-41
2021/01/26 06:08:14;;;;;;;2.97;1.52;;;;;;;27.05;26.58;96450.09;4994565;28;20053;-35
2021/01/26 06:10:44;;;;;;;0.88;0.77;;;;;;;27.04;26.50;96453.66;4982460;28;20117;-42
2021/01/26 06:13:10;;;;;;;8.57;1.30;;;;;;;27.05;26.54;96455.38;4991295;28;20067;-43
2021/01/26 06:15:37;;;;;;;16.80;1.30;;;;;;;27.05;26.42;96454.50;4982077;28;20653;-36
2021/01/26 06:18:19;;;;;;;7.47;1.17;;;;;;;27.04;26.33;96458.09;4981225;28;20125;-37
2021/01/26 06:21:01;;;;;;;;;;;;;;;27.03;26.22;96462.50;4983962;28;20030;-37
2021/01/26 06:23:27;;;;;;;6.50;1.75;;;;;;;27.00;26.11;96467.94;4977610;28;19937;-39
2021/01/26 06:25:57;;;;;;;5.60;1.17;;;;;;;26.97;26.26;96468.97;4981137;28;20162;-40
2021/01/26 06:28:40;;;;;;;3.00;1.23;;;;;;;26.97;26.26;96468.97;4975599;28;20034;-39
2021/01/26 06:31:27;;;;;;;1.98;1.10;;;;;;;26.97;26.47;96468.16;4980454;28;20495;-40
2021/01/26 06:34:13;;;;;;;3.17;0.80;;;;;;;26.98;26.48;96472.47;4984042;28;20741;-37
2021/01/26 06:36:50;;;;;;;6.32;1.15;;;;;;;26.97;26.55;96476.03;4977381;28;20046;-40
2021/01/26 06:39:34;;;;;;;3.72;1.27;;;;;;;26.97;26.54;96470.78;4977244;28;20113;-39
2021/01/26 06:42:21;;;;;;;1.35;1.00;;;;;;;26.99;26.60;96476.78;4981125;28;20043;-38
2021/01/26 06:45:05;;;;;;;2.42;1.08;;;;;;;27.00;26.53;96475.81;4981718;28;20646;-38
2021/01/26 06:47:48;;;;;;;4.03;1.17;;;;;;;26.99;26.72;96474.16;4979233;28;20147;-38
2021/01/26 06:50:51;;;;;;;2.17;0.98;;;;;;;27.00;26.82;96474.06;4983525;28;20027;-39
2021/01/26 06:53:19;;;;;;;1.00;0.93;;;;;;;27.00;26.66;96467.94;4981815;28;20046;-35
2021/01/26 06:56:03;;;;;;;1.17;0.82;;;;;;;27.01;26.68;96469.66;4979534;28;20045;-33
2021/01/26 06:58:47;;;;;;;2.70;1.02;;;;;;;27.02;26.75;96473.97;4982673;28;20065;-42
2021/01/26 07:01:50;;;;;;;2.08;0.80;;;;;;;27.02;26.05;96466.06;4983241;28;20070;-42
2021/01/26 07:04:31;;;;;;;2.35;1.20;;;;;;;26.98;25.97;96472.47;4977093;28;20129;-36
2021/01/26 07:07:21;;;;;;;5.10;0.80;;;;;;;26.95;26.51;96483.16;4986139;28;20029;-38
2021/01/26 07:10:25;;;;;;;5.05;1.30;;;;;;;26.96;26.88;96482.25;4983550;28;20014;-41
2021/01/26 07:13:02;;;;;;;2.83;1.02;;;;;;;26.96;26.80;96477.81;4976289;28;20047;-34
2021/01/26 07:15:40;;;;;;;1.45;0.85;;;;;;;26.98;26.65;96485.63;4965404;28;20411;-37
2021/01/26 07:18:14;;;;;;;2.42;1.10;;;;;;;27.00;26.64;96488.97;4980760;28;20022;-38
2021/01/26 07:20:46;;;;;;;1.33;1.00;;;;;;;27.00;26.61;96494.25;4978057;28;20025;-41
2021/01/26 07:23:30;;;;;;;3.28;0.90;;;;;;;27.05;26.65;96507.97;4971579;28;20053;-39
2021/01/26 07:26:10;;;;;;;2.83;1.10;;;;;;;27.07;26.71;96505.22;4977507;28;20034;-41
2021/01/26 07:28:48;;;;;;;1.13;0.80;;;;;;;27.08;26.77;96509.56;4980933;28;20069;-38
2021/01/26 07:31:22;;;;;;;0.90;0.80;;;;;;;27.08;26.69;96513.00;4977664;28;20050;-39
2021/01/26 07:33:47;;;;;;;3.00;0.93;;;;;;;27.10;26.58;96512.91;4972987;28;20037;-40
2021/01/26 07:36:27;;;;;;;1.10;0.80;;;;;;;27.10;26.50;96519.03;4983814;28;20042;-35
2021/01/26 07:39:17;;;;;;;2.22;0.75;;;;;;;27.10;26.60;96516.41;4979077;28;20038;-38
2021/01/26 07:41:55;;;;;;;2.92;1.10;;;;;;;27.12;26.47;96525.03;4980828;28;20619;-40
2021/01/26 07:44:39;;;;;;;1.42;0.90;;;;;;;27.15;26.44;96528.44;4987382;28;20133;-40
2021/01/26 07:47:21;;;;;;;1.35;0.90;;;;;;;27.12;26.43;96535.56;4988189;28;20042;-36
2021/01/26 07:50:06;;;;;;;4.20;1.33;;;;;;;27.13;26.25;96536.41;4990107;28;20970;-40
2021/01/26 07:52:32;;;;;;;4.88;1.10;;;;;;;27.10;26.19;96536.59;4987120;28;20126;-37
2021/01/26 07:55:06;;;;;;;3.05;1.30;;;;;;;27.09;26.01;96538.41;4979206;28;20203;-44
2021/01/26 07:57:55;;;;;;;3.50;1.20;;;;;;;27.08;25.97;96544.56;4977365;28;20085;-40
2021/01/26 08:00:22;;;;;;;4.57;1.10;;;;;;;27.09;26.05;96546.28;4985342;28;20027;-38
2021/01/26 08:02:52;;;;;;;7.18;1.35;;;;;;;27.10;26.04;96562.88;4973621;28;20523;-40
2021/01/26 08:05:19;;;;;;;3.05;0.85;;;;;;;27.09;26.15;96567.31;4981154;28;20042;-39
2021/01/26 08:07:45;;;;;;;6.65;1.20;;;;;;;27.11;26.30;96564.56;4980870;28;20495;-39
2021/01/26 08:10:19;;;;;;;2.15;1.10;;;;;;;27.11;26.18;96569.84;4983662;28;20114;-39
2021/01/26 08:12:45;;;;;;;2.35;1.10;;;;;;;27.13;26.12;96567.97;4985440;28;20033;-42
2021/01/26 08:15:19;;;;;;;4.72;1.10;;;;;;;27.13;26.07;96578.50;4982599;28;20041;-38
2021/01/26 08:17:45;;;;;;;3.67;1.25;;;;;;;27.15;26.23;96581.03;4977087;28;20482;-39
2021/01/26 08:20:37;;;;;;;2.67;0.90;;;;;;;27.15;26.33;96588.91;5001727;28;20030;-37
2021/01/26 08:23:06;;;;;;;;;;;;;;;27.15;25.31;96586.28;4981619;28;20076;-38
2021/01/26 08:25:36;;;;;;;11.98;1.25;;;;;;;27.13;25.99;96599.53;4998762;28;19953;-41
2021/01/26 08:28:31;;;;;;;2.35;1.00;;;;;;;27.13;26.21;96600.38;4980951;28;20074;-37
2021/01/26 08:31:00;;;;;;;3.80;0.90;;;;;;;27.12;26.12;96601.31;4983960;28;20097;-38
2021/01/26 08:33:30;;;;;;;4.78;1.17;;;;;;;27.13;26.31;96610.91;4997789;28;20045;-35
2021/01/26 08:36:11;;;;;;;3.17;1.30;;;;;;;27.16;26.23;96614.28;4991124;28;20136;-37
2021/01/26 08:38:48;;;;;;;1.92;0.90;;;;;;;27.17;26.32;96626.47;4979224;28;20041;-34
2021/01/26 08:41:35;;;;;;;1.73;1.10;;;;;;;27.16;26.43;96630.06;4984110;28;20049;-37
2021/01/26 08:44:00;;;;;;;3.20;1.45;;;;;;;27.17;26.43;96642.28;4995507;28;20062;-40
2021/01/26 08:46:31;;;;;;;1.35;0.85;;;;;;;27.17;26.13;96642.28;4985784;28;20073;-36
2021/01/26 08:49:02;;;;;;;1.33;0.82;;;;;;;27.17;25.97;96647.53;4988768;28;20057;-36
2021/01/26 08:51:27;;;;;;;2.43;0.80;;;;;;;27.18;26.12;96649.22;4987758;28;20034;-41
2021/01/26 08:53:54;;;;;;;3.30;0.85;;;;;;;27.19;26.09;96656.19;4992537;28;20562;-41
2021/01/26 08:56:22;;;;;;;5.13;1.00;;;;;;;27.20;26.02;96663.13;4995646;28;20096;-39
2021/01/26 08:58:49;;;;;;;3.55;0.80;;;;;;;27.19;25.91;96659.66;4990295;28;20538;-41
2021/01/26 09:01:23;;;;;;;1.60;1.02;;;;;;;27.20;26.16;96669.25;4969754;28;20423;-37
2021/01/26 09:03:56;;;;;;;11.07;2.10;;;;;;;27.16;20.40;96667.75;4990963;28;20029;-42
2021/01/26 09:06:42;;;;;;;9.27;3.17;;;;;;;26.83;17.52;96667.00;4973529;28;20066;-38
2021/01/26 09:09:19;;;;;;;6.63;2.70;;;;;;;26.51;16.55;96666.28;4979030;28;20491;-37
2021/01/26 09:11:44;;;;;;;6.13;2.25;;;;;;;26.23;17.09;96663.41;4973859;28;20117;-39
2021/01/26 09:14:32;;;;;;;6.07;2.42;;;;;;;26.02;19.36;96666.34;4978580;28;20057;-38
2021/01/26 09:17:02;;;;;;;6.70;2.28;;;;;;;25.91;20.51;96658.22;4977530;28;20821;-39
2021/01/26 09:19:42;;;;;;;4.60;1.85;;;;;;;25.89;21.22;96660.09;4986065;28;20033;-37
2021/01/26 09:22:18;;;;;;;3.28;1.63;;;;;;;25.92;21.83;96654.63;4985868;28;20100;-38
2021/01/26 09:24:43;;;;;;;5.75;2.35;;;;;;;25.96;22.22;96653.53;4982872;28;20078;-38
2021/01/26 09:27:35;;;;;;;2.65;1.83;;;;;;;26.02;22.66;96655.84;4978101;28;20041;-39
2021/01/26 09:30:16;;;;;;;;;;;;;;;26.07;22.83;96656.41;4984879;28;20040;-36
2021/01/26 09:32:44;;;;;;;9.50;1.83;;;;;;;26.09;23.12;96659.78;4981899;28;20411;-38
2021/01/26 09:35:29;;;;;;;5.68;1.85;;;;;;;26.15;23.28;96661.22;4982930;28;20477;-43
2021/01/26 09:38:05;;;;;;;9.80;1.85;;;;;;;26.19;23.29;96665.38;4978769;28;20042;-37
2021/01/26 09:40:31;;;;;;;3.28;1.58;;;;;;;26.23;23.47;96659.03;4981769;28;20145;-41
2021/01/26 09:43:16;;;;;;;6.35;1.60;;;;;;;26.29;23.61;96655.22;4986036;28;20062;-40
2021/01/26 09:45:42;;;;;;;4.60;1.55;;;;;;;26.33;23.86;96664.63;4985899;28;20049;-38
2021/01/26 09:48:08;;;;;;;3.97;1.70;;;;;;;26.37;23.71;96675.81;4983673;28;20087;-39
2021/01/26 09:50:34;;;;;;;4.53;1.75;;;;;;;26.40;24.09;96673.00;4983361;28;20165;-38
2021/01/26 09:53:01;;;;;;;6.78;2.50;;;;;;;26.41;24.20;96676.47;4988013;28;20046;-39
2021/01/26 09:55:27;;;;;;;7.70;2.20;;;;;;;26.44;24.17;96676.28;4992134;28;21349;-40
2021/01/26 09:57:54;;;;;;;10.15;2.17;;;;;;;26.48;24.27;96677.81;4977561;28;20534;-47
2021/01/26 10:00:22;;;;;;;5.53;1.73;;;;;;;26.51;24.32;96688.16;4989169;28;20113;-41
2021/01/26 10:02:49;;;;;;;5.90;2.03;;;;;;;26.55;24.32;96684.38;4987686;28;20069;-38
2021/01/26 10:05:14;;;;;;;10.13;1.90;;;;;;;26.57;24.65;96679.91;4966752;28;20761;-37
2021/01/26 10:07:40;;;;;;;8.27;2.00;;;;;;;26.60;24.44;96678.88;4981590;28;20813;-37
2021/01/26 10:10:28;;;;;;;7.88;1.70;;;;;;;26.63;24.58;96675.22;4981287;28;20038;-40
2021/01/26 10:12:54;;;;;;;5.45;1.75;;;;;;;26.66;24.62;96683.75;4976594;28;20137;-38
2021/01/26 10:15:22;;;;;;;2.90;1.40;;;;;;;26.69;24.60;96680.13;4975722;28;20049;-37
2021/01/26 10:17:55;;;;;;;5.63;1.90;;;;;;;26.71;24.74;96673.84;4983735;28;20022;-38
2021/01/26 10:20:36;;;;;;;5.18;1.88;;;;;;;26.74;24.68;96672.81;4987197;28;20027;-38
2021/01/26 10:23:21;;;;;;;9.75;1.45;;;;;;;26.77;24.59;96677.06;4981188;28;20140;-41
2021/01/26 10:25:47;;;;;;;3.45;1.45;;;;;;;26.78;24.61;96684.84;4979006;28;20108;-40
2021/01/26 10:28:26;;;;;;;5.70;1.40;;;;;;;26.80;24.63;96688.22;4982452;28;20058;-42
2021/01/26 10:30:52;;;;;;;3.33;1.33;;;;;;;26.82;24.71;96690.75;4985738;28;20043;-36
2021/01/26 10:33:37;;;;;;;30.45;1.95;;;;;;;26.78;24.21;96694.50;4974754;28;20065;-40
2021/01/26 10:36:27;;;;;;;6.07;1.45;;;;;;;26.61;25.24;96712.97;4970440;28;20046;-38
2021/01/26 10:38:53;;;;;;;4.03;1.25;;;;;;;26.50;25.35;96694.31;4981311;28;20026;-35
2021/01/26 10:41:25;;;;;;;4.20;1.23;;;;;;;26.41;25.60;96700.97;4979804;28;20069;-40
2021/01/26 10:44:05;;;;;;;3.42;1.30;;;;;;;26.40;25.44;96693.16;4997140;28;20129;-38
2021/01/26 10:46:33;;;;;;;4.30;1.23;;;;;;;26.42;25.99;96704.44;4979976;28;20125;-38
2021/01/26 10:49:15;;;;;;;10.75;1.50;;;;;;;26.49;25.76;96700.53;4983731;28;20040;-37
2021/01/26 10:51:42;;;;;;;1.73;1.30;;;;;;;26.57;25.48;96708.81;4971478;28;20030;-43
2021/01/26 10:54:07;;;;;;;4.63;1.33;;;;;;;26.68;25.67;96709.97;4979655;28;20042;-38
2021/01/26 10:56:34;;;;;;;5.07;1.55;;;;;;;26.77;25.81;96712.06;4982673;28;20057;-35
2021/01/26 10:58:59;;;;;;;4.07;1.25;;;;;;;26.87;25.04;96713.22;4981789;28;20043;-36
2021/01/26 11:01:25;;;;;;;4.63;1.58;;;;;;;26.99;25.67;96708.19;4992463;28;20054;-37
2021/01/26 11:03:51;;;;;;;3.38;1.45;;;;;;;27.09;25.52;96714.63;4989370;28;20041;-35
2021/01/26 11:06:18;;;;;;;2.80;0.95;;;;;;;27.20;25.29;96715.75;4982654;28;22393;-37
2021/01/26 11:09:12;;;;;;;4.10;1.42;;;;;;;27.30;25.30;96719.50;4979884;28;20080;-37
2021/01/26 11:11:38;;;;;;;6.00;1.42;;;;;;;27.46;25.16;96718.59;4956474;28;20050;-37
2021/01/26 11:14:05;;;;;;;2.63;1.20;;;;;;;27.58;24.81;96723.06;4937079;28;20659;-40
2021/01/26 11:16:30;;;;;;;2.90;1.05;;;;;;;27.71;25.20;96722.34;4959952;28;20064;-36
2021/01/26 11:18:56;;;;;;;2.80;1.20;;;;;;;27.85;24.95;96721.50;4977872;28;20423;-38
2021/01/26 11:21:23;;;;;;;2.05;1.20;;;;;;;27.97;24.86;96731.25;4981065;28;20151;-39
2021/01/26 11:23:49;;;;;;;3.33;1.10;;;;;;;28.09;25.04;96727.00;4982609;28;20038;-37
2021/01/26 11:26:16;;;;;;;1.67;0.93;;;;;;;28.24;24.84;96726.94;4991980;28;20052;-38
2021/01/26 11:28:42;;;;;;;4.68;1.30;;;;;;;28.33;24.59;96729.00;4985048;28;20042;-37
2021/01/26 11:31:07;;;;;;;1.98;1.17;;;;;;;28.40;24.98;96727.69;4972903;28;20427;-34
2021/01/26 11:33:35;;;;;;;2.17;1.10;;;;;;;28.47;24.51;96727.28;4980581;28;20039;-37
2021/01/26 11:36:01;;;;;;;2.08;1.13;;;;;;;28.54;23.32;96723.31;4974218;28;20042;-40
2021/01/26 11:38:27;;;;;;;4.55;1.20;;;;;;;28.59;23.49;96723.84;4979670;28;20546;-38
2021/01/26 11:40:52;;;;;;;4.70;1.77;;;;;;;28.64;23.77;96729.66;4977081;28;20523;-35
2021/01/26 11:43:19;;;;;;;3.17;1.00;;;;;;;28.68;23.89;96736.41;4990453;28;20052;-36
2021/01/26 11:45:45;;;;;;;3.95;1.30;;;;;;;28.69;24.16;96732.81;4982837;28;20053;-37
2021/01/26 11:48:10;;;;;;;3.55;0.90;;;;;;;28.71;24.25;96734.53;4984964;28;20054;-35
2021/01/26 11:50:36;;;;;;;2.83;1.05;;;;;;;28.71;24.16;96731.91;4979468;28;20049;-33
2021/01/26 11:53:07;;;;;;;3.45;1.10;;;;;;;28.73;24.02;96736.13;4978489;28;20054;-35
2021/01/26 11:55:32;;;;;;;4.97;1.30;;;;;;;28.71;23.54;96726.63;4976963;28;20085;-37
2021/01/26 11:57:58;;;;;;;4.05;1.10;;;;;;;28.67;24.75;96740.00;4981618;28;20046;-34